Time;durP1;ratioP1;P1;durP2;ratioP2;P2;SDS_P1;SDS_P2;PMS_P1;PMS_P2;Temp;Humidity;BMP_temperature;BMP_pressure;BME280_temperature;BME280_humidity;BME280_pressure;Samples;Min_cycle;Max_cycle;Signal;HPM_P1;HPM_P2
2022/10/20 00:01:39;;;;;;;18.25;8.82;;;;;;;9.01;69.97;99065.59;4939145;29;20421;-93
2022/10/20 00:04:06;;;;;;;15.40;7.82;;;;;;;8.99;69.15;99059.63;4910839;29;20556;-90
2022/10/20 00:06:32;;;;;;;14.45;7.43;;;;;;;8.98;69.26;99041.66;4905342;29;20142;-92
2022/10/20 00:09:03;;;;;;;13.32;6.75;;;;;;;8.96;68.99;99049.34;4919479;29;20044;-90
2022/10/20 00:14:03;;;;;;;15.93;5.93;;;;;;;8.93;67.62;99042.56;4940882;29;20040;-89
2022/10/20 00:16:29;;;;;;;;;;;;;;;9.20;67.64;99107.09;4937503;29;20151;-89
2022/10/20 00:18:56;;;;;;;8.80;5.28;;;;;;;9.11;67.52;99089.88;4920586;29;19927;-89
2022/10/20 00:21:25;;;;;;;12.25;4.97;;;;;;;8.96;66.96;99062.97;4937943;29;20048;-89
2022/10/20 00:23:51;;;;;;;11.40;5.13;;;;;;;8.76;67.95;99065.03;4949008;29;20079;-89
2022/10/20 00:26:24;;;;;;;23.67;6.00;;;;;;;8.79;67.23;99069.09;4948407;29;20055;-89
2022/10/20 00:28:51;;;;;;;10.70;5.70;;;;;;;8.74;67.25;99089.09;4917353;29;20047;-90
2022/10/20 00:31:18;;;;;;;17.65;6.60;;;;;;;8.86;67.92;99129.44;4954172;29;20039;-89
2022/10/20 00:33:45;;;;;;;12.68;5.95;;;;;;;8.69;67.74;99106.34;4918061;29;20110;-90
2022/10/20 00:36:17;;;;;;;10.32;5.32;;;;;;;8.68;68.27;99125.75;4929304;29;20450;-90
2022/10/20 00:38:43;;;;;;;10.38;4.85;;;;;;;8.44;68.84;99113.16;4919732;29;20043;-88
2022/10/20 00:41:12;;;;;;;13.35;5.30;;;;;;;8.41;68.95;99085.69;4922526;29;20039;-89
2022/10/20 00:43:49;;;;;;;13.77;4.93;;;;;;;8.72;68.81;99128.66;4938722;29;20041;-92
2022/10/20 00:46:19;;;;;;;8.20;4.47;;;;;;;8.73;68.98;99130.25;4938959;29;20045;-89
2022/10/20 00:48:49;;;;;;;10.73;4.70;;;;;;;8.44;69.39;99106.88;4947932;29;20039;-89
2022/10/20 00:51:18;;;;;;;9.00;4.43;;;;;;;8.59;69.13;99122.09;4919321;29;20047;-89
2022/10/20 00:53:47;;;;;;;10.85;4.70;;;;;;;8.58;68.61;99118.59;4919538;29;20050;-89
2022/10/20 00:56:13;;;;;;;10.05;4.97;;;;;;;8.66;69.13;99117.84;4919593;29;20054;-90
2022/10/20 00:58:40;;;;;;;11.47;5.33;;;;;;;8.63;68.52;99114.94;4904012;29;20043;-89
2022/10/20 01:01:06;;;;;;;10.32;5.95;;;;;;;8.74;69.16;99140.88;4953551;29;20130;-91
2022/10/20 01:03:50;;;;;;;11.48;6.85;;;;;;;8.62;68.84;99135.94;4934924;29;20450;-91
2022/10/20 01:06:22;;;;;;;16.20;6.47;;;;;;;8.49;69.22;99123.13;4919336;29;20044;-91
2022/10/20 01:08:51;;;;;;;13.77;7.78;;;;;;;8.51;69.54;99120.06;4920074;29;20513;-89
2022/10/20 01:11:38;;;;;;;17.13;7.72;;;;;;;8.60;70.65;99153.69;4929287;29;20121;-90
2022/10/20 01:14:34;;;;;;;12.32;6.45;;;;;;;8.77;69.63;99172.13;4922557;29;20036;-90
2022/10/20 01:17:27;;;;;;;12.57;6.85;;;;;;;8.75;69.73;99168.94;4905788;29;20054;-90
2022/10/20 01:20:06;;;;;;;11.20;6.30;;;;;;;8.78;69.36;99176.50;4937444;29;20043;-89
2022/10/20 01:22:57;;;;;;;14.05;6.75;;;;;;;8.80;69.70;99177.78;4912262;29;20146;-92
2022/10/20 01:25:47;;;;;;;15.40;6.35;;;;;;;8.73;69.51;99182.03;4919156;29;20044;-91
2022/10/20 01:28:26;;;;;;;10.90;6.63;;;;;;;8.53;69.66;99156.00;4905598;29;20055;-91
2022/10/20 01:30:58;;;;;;;12.52;6.13;;;;;;;8.35;70.09;99136.72;4936715;29;20054;-90
2022/10/20 01:34:00;;;;;;;12.77;6.43;;;;;;;8.41;70.07;99130.09;4921731;29;20054;-91
2022/10/20 01:36:44;;;;;;;16.33;6.65;;;;;;;8.66;69.63;99180.53;4918578;29;20086;-94
2022/10/20 01:39:27;;;;;;;17.15;7.10;;;;;;;8.56;69.20;99158.94;4903335;29;20126;-90
2022/10/20 01:42:03;;;;;;;22.33;6.97;;;;;;;8.44;69.56;99143.13;4905374;29;20040;-89
2022/10/20 01:44:31;;;;;;;12.75;6.00;;;;;;;8.38;69.55;99140.78;4952583;29;20121;-90
2022/10/20 01:46:59;;;;;;;15.10;5.60;;;;;;;8.43;70.11;99163.25;4909680;29;20135;-91
2022/10/20 01:49:25;;;;;;;12.80;5.70;;;;;;;8.39;69.09;99178.59;4903007;29;20506;-91
2022/10/20 01:51:53;;;;;;;16.42;6.00;;;;;;;8.60;69.74;99213.63;4936611;29;20035;-90
2022/10/20 01:54:28;;;;;;;9.50;5.70;;;;;;;8.75;70.02;99212.53;4931305;29;20047;-90
2022/10/20 01:57:32;;;;;;;12.70;5.75;;;;;;;8.46;70.09;99173.56;4938028;29;20038;-90
2022/10/20 02:00:04;;;;;;;19.90;5.78;;;;;;;8.66;69.75;99217.88;4915798;29;20155;-90
2022/10/20 02:02:53;;;;;;;13.32;5.35;;;;;;;8.34;69.10;99180.59;4916407;29;20130;-89
2022/10/20 02:05:28;;;;;;;18.00;5.18;;;;;;;8.56;69.39;99227.03;4920166;29;20524;-90
2022/10/20 02:08:11;;;;;;;10.43;4.80;;;;;;;8.37;68.89;99196.31;4905007;29;20569;-90
2022/10/20 02:10:45;;;;;;;9.73;4.70;;;;;;;8.24;69.79;99185.13;4902964;29;20047;-90
2022/10/20 02:13:13;;;;;;;11.27;3.78;;;;;;;8.46;69.38;99232.69;4931171;29;20043;-90
2022/10/20 02:15:44;;;;;;;7.63;4.10;;;;;;;8.24;69.57;99215.09;4901611;29;20079;-89
2022/10/20 02:18:15;;;;;;;6.28;3.70;;;;;;;8.17;69.85;99222.81;4940680;29;20070;-90
2022/10/20 02:20:44;;;;;;;5.50;3.15;;;;;;;7.99;69.96;99207.34;4953237;28;20083;-89
2022/10/20 02:23:10;;;;;;;7.75;3.33;;;;;;;8.22;69.83;99247.25;4946408;28;20075;-89
2022/10/20 02:25:38;;;;;;;7.07;3.37;;;;;;;7.88;69.59;99189.56;4940364;29;20039;-91
2022/10/20 02:28:09;;;;;;;4.30;2.78;;;;;;;8.12;68.86;99238.44;4923742;29;20509;-89
2022/10/20 02:30:38;;;;;;;7.45;3.35;;;;;;;8.14;69.34;99249.84;4938072;28;20078;-88
2022/10/20 02:33:06;;;;;;;7.63;3.20;;;;;;;7.95;69.81;99212.59;4908503;29;20039;-89
2022/10/20 02:35:33;;;;;;;4.97;3.17;;;;;;;8.02;69.40;99220.38;4912171;29;20066;-92
2022/10/20 02:38:01;;;;;;;8.68;3.92;;;;;;;8.14;70.06;99228.03;4958570;29;20409;-91
2022/10/20 02:40:27;;;;;;;8.85;3.45;;;;;;;8.36;70.54;99266.34;4925922;29;20039;-91
2022/10/20 02:42:53;;;;;;;6.10;3.00;;;;;;;8.27;69.72;99253.69;4925351;29;20417;-90
2022/10/20 02:45:19;;;;;;;10.07;3.50;;;;;;;8.18;69.67;99227.16;4905283;29;20468;-90
2022/10/20 02:47:45;;;;;;;5.05;3.05;;;;;;;8.33;70.24;99255.22;4922936;29;20035;-90
2022/10/20 02:50:12;;;;;;;13.33;3.00;;;;;;;8.21;70.39;99242.09;4927536;29;20058;-91
2022/10/20 02:52:39;;;;;;;4.78;2.90;;;;;;;8.32;70.38;99269.97;4921867;29;20498;-91
2022/10/20 02:55:05;;;;;;;4.38;2.88;;;;;;;8.35;68.89;99263.94;4891640;29;20091;-89
2022/10/20 02:57:31;;;;;;;8.90;2.90;;;;;;;8.33;69.22;99260.69;4946888;28;20044;-89
2022/10/20 02:59:57;;;;;;;5.70;3.33;;;;;;;8.50;69.99;99287.38;4940954;29;20048;-88
2022/10/20 03:02:24;;;;;;;9.88;3.20;;;;;;;8.54;69.67;99294.63;4934794;29;20051;-92
2022/10/20 03:04:50;;;;;;;6.63;3.83;;;;;;;8.44;70.44;99297.53;4909214;29;20042;-89
2022/10/20 03:07:16;;;;;;;6.82;3.70;;;;;;;8.35;69.97;99272.09;4931044;29;20035;-90
2022/10/20 03:09:43;;;;;;;6.45;4.18;;;;;;;8.22;69.44;99247.25;4919495;29;20537;-91
2022/10/20 03:12:09;;;;;;;10.43;4.38;;;;;;;8.19;68.58;99266.91;4911746;29;20048;-89
2022/10/20 03:14:36;;;;;;;9.52;4.18;;;;;;;8.13;68.95;99256.41;4912987;29;20525;-88
2022/10/20 03:17:02;;;;;;;11.38;4.40;;;;;;;8.02;69.59;99233.97;4908088;29;20576;-88
2022/10/20 03:19:29;;;;;;;11.18;4.18;;;;;;;8.19;69.32;99264.19;4924721;29;20420;-88
2022/10/20 03:21:56;;;;;;;12.15;4.25;;;;;;;8.27;69.95;99270.03;4909846;29;20047;-90
2022/10/20 03:24:22;;;;;;;7.53;3.80;;;;;;;8.35;69.49;99280.28;4909663;29;20051;-89
2022/10/20 03:26:48;;;;;;;5.82;3.65;;;;;;;8.36;69.78;99290.84;4951539;29;20043;-88
2022/10/20 03:29:14;;;;;;;9.63;3.72;;;;;;;8.18;69.47;99262.56;4939850;29;20428;-91
2022/10/20 03:31:42;;;;;;;14.80;3.65;;;;;;;8.11;69.63;99275.75;4924299;29;20039;-89
2022/10/20 03:34:08;;;;;;;8.40;3.67;;;;;;;8.03;68.92;99260.09;4921334;29;20135;-89
2022/10/20 03:36:34;;;;;;;6.87;3.30;;;;;;;8.17;70.31;99285.44;4910749;29;20039;-89
2022/10/20 03:39:00;;;;;;;7.65;3.60;;;;;;;8.35;68.87;99304.78;4916627;29;20134;-90
2022/10/20 03:41:27;;;;;;;6.00;3.00;;;;;;;8.33;68.90;99307.78;4907645;29;20117;-93
2022/10/20 03:43:53;;;;;;;13.60;4.10;;;;;;;8.33;68.44;99309.72;4957259;28;20378;-91
2022/10/20 03:46:19;;;;;;;16.27;3.90;;;;;;;8.06;68.70;99288.63;4938494;29;20032;-91
2022/10/20 03:48:45;;;;;;;8.85;3.35;;;;;;;8.02;69.09;99295.78;4924305;29;20493;-90
2022/10/20 03:51:13;;;;;;;7.57;3.53;;;;;;;8.21;69.58;99330.06;4940533;29;20044;-92
2022/10/20 03:53:39;;;;;;;8.00;3.17;;;;;;;8.06;70.36;99313.94;4911175;29;20045;-87
2022/10/20 03:56:07;;;;;;;14.73;4.82;;;;;;;8.18;70.33;99335.28;4958918;29;20043;-87
2022/10/20 03:58:33;;;;;;;7.57;3.35;;;;;;;7.98;70.18;99317.34;4933169;29;20461;-89
2022/10/20 04:01:00;;;;;;;7.70;3.78;;;;;;;8.04;70.37;99334.41;4937566;28;20127;-85
2022/10/20 04:03:26;;;;;;;7.68;3.92;;;;;;;8.09;70.61;99331.59;4953800;29;20047;-87
2022/10/20 04:05:52;;;;;;;10.13;4.05;;;;;;;8.06;70.88;99330.28;4956265;29;20048;-91
2022/10/20 04:08:18;;;;;;;7.50;4.70;;;;;;;7.99;71.09;99327.94;4938086;29;20055;-91
2022/10/20 04:10:44;;;;;;;10.32;4.88;;;;;;;8.06;70.64;99340.38;4923882;29;20397;-91
2022/10/20 04:13:10;;;;;;;8.73;5.43;;;;;;;7.98;70.92;99342.66;4926403;29;20054;-88
2022/10/20 04:15:36;;;;;;;9.13;5.07;;;;;;;8.06;70.62;99338.44;4918180;29;20043;-88
2022/10/20 04:18:04;;;;;;;11.35;4.82;;;;;;;7.92;70.73;99329.41;4938211;29;20191;-90
2022/10/20 04:20:31;;;;;;;9.07;5.22;;;;;;;7.95;71.20;99337.00;4889681;29;20047;-91
2022/10/20 04:22:57;;;;;;;18.65;6.03;;;;;;;8.16;71.45;99375.59;4926925;29;20047;-93
2022/10/20 04:25:23;;;;;;;9.40;5.53;;;;;;;8.02;71.12;99363.84;4923896;29;20043;-91
2022/10/20 04:27:49;;;;;;;15.18;6.57;;;;;;;7.75;71.66;99338.09;4928194;29;20039;-90
2022/10/20 04:30:15;;;;;;;11.10;6.43;;;;;;;7.72;71.77;99336.75;4923911;29;20039;-90
2022/10/20 04:32:41;;;;;;;12.05;7.03;;;;;;;8.00;71.82;99396.78;4910331;29;20501;-89
2022/10/20 04:35:08;;;;;;;16.98;7.82;;;;;;;8.00;71.65;99380.47;4923134;29;20058;-86
2022/10/20 04:37:34;;;;;;;12.68;7.90;;;;;;;7.80;71.93;99364.41;4953699;29;20053;-86
2022/10/20 04:40:00;;;;;;;14.23;7.63;;;;;;;8.07;72.72;99393.69;4956622;29;20043;-89
2022/10/20 04:42:27;;;;;;;14.60;8.65;;;;;;;8.01;71.71;99373.91;4932431;29;20063;-85
2022/10/20 04:44:53;;;;;;;14.95;8.50;;;;;;;8.12;71.31;99389.00;4918174;29;20161;-86
2022/10/20 04:47:19;;;;;;;17.10;9.55;;;;;;;8.02;71.58;99394.59;4921033;29;20126;-85
2022/10/20 04:49:45;;;;;;;21.63;9.65;;;;;;;7.71;71.63;99354.16;4918432;29;20043;-85
2022/10/20 04:52:11;;;;;;;13.63;9.18;;;;;;;7.74;71.66;99367.19;4935284;29;20040;-85
2022/10/20 04:54:37;;;;;;;18.23;8.63;;;;;;;7.89;71.42;99392.59;4934940;29;20458;-86
2022/10/20 04:57:04;;;;;;;14.63;8.70;;;;;;;7.75;71.62;99366.13;4934258;29;20417;-86
2022/10/20 04:59:31;;;;;;;13.30;8.90;;;;;;;7.97;71.71;99410.97;4934896;29;20425;-86
2022/10/20 05:01:57;;;;;;;12.33;9.20;;;;;;;7.73;72.88;99376.47;4935542;29;20126;-85
2022/10/20 05:04:23;;;;;;;16.35;9.57;;;;;;;7.99;72.18;99411.50;4935581;29;20146;-85
2022/10/20 05:06:49;;;;;;;24.08;9.73;;;;;;;8.07;72.10;99413.56;4935277;29;20095;-84
2022/10/20 05:09:15;;;;;;;23.15;9.90;;;;;;;8.06;71.81;99414.69;4935980;29;20043;-87
2022/10/20 05:11:42;;;;;;;16.20;8.67;;;;;;;8.06;71.48;99422.03;4935088;29;20047;-86
2022/10/20 05:14:08;;;;;;;13.68;7.78;;;;;;;8.16;71.70;99425.41;4935980;29;20292;-85
2022/10/20 05:16:35;;;;;;;14.10;7.68;;;;;;;8.11;71.11;99401.00;4935066;29;20123;-85
2022/10/20 05:19:01;;;;;;;17.77;7.65;;;;;;;8.12;70.10;99401.81;4935919;29;20052;-86
2022/10/20 05:21:29;;;;;;;32.50;8.43;;;;;;;8.08;70.29;99398.88;4936334;29;20047;-85
2022/10/20 05:23:58;;;;;;;33.70;7.97;;;;;;;8.05;70.58;99401.38;4920027;29;20047;-85
2022/10/20 05:26:25;;;;;;;17.90;8.23;;;;;;;8.06;69.98;99411.16;4931042;29;20497;-85
2022/10/20 05:28:51;;;;;;;29.20;8.02;;;;;;;8.18;69.67;99427.88;4915944;29;20039;-85
2022/10/20 05:31:21;;;;;;;33.17;8.15;;;;;;;8.20;69.86;99448.22;4912620;29;20068;-85
2022/10/20 05:33:50;;;;;;;51.92;10.55;;;;;;;8.17;70.23;99456.97;4934522;29;20509;-85
2022/10/20 05:36:19;;;;;;;26.95;8.57;;;;;;;8.08;70.76;99438.88;4935318;29;20043;-86
2022/10/20 05:38:46;;;;;;;24.15;8.20;;;;;;;8.21;70.36;99460.75;4935649;29;20070;-85
2022/10/20 05:41:15;;;;;;;30.23;8.57;;;;;;;8.21;71.34;99460.75;4936065;29;20161;-85
2022/10/20 05:43:41;;;;;;;29.75;7.72;;;;;;;8.06;70.67;99443.81;4936156;29;20458;-87
2022/10/20 05:46:08;;;;;;;24.17;8.05;;;;;;;8.10;70.07;99439.41;4936020;29;20123;-86
2022/10/20 05:48:35;;;;;;;21.45;7.75;;;;;;;8.12;72.01;99454.34;4935356;29;20043;-86
2022/10/20 05:51:18;;;;;;;14.18;7.40;;;;;;;8.31;69.84;99486.22;4935624;29;20098;-87
2022/10/20 05:53:48;;;;;;;22.60;7.20;;;;;;;7.91;69.32;99437.50;4931156;29;20043;-86
2022/10/20 05:56:19;;;;;;;20.58;6.60;;;;;;;7.93;69.64;99459.75;4917521;29;20047;-87
2022/10/20 05:58:48;;;;;;;24.85;6.32;;;;;;;7.84;69.69;99461.50;4940370;29;20572;-93
2022/10/20 06:01:19;;;;;;;10.75;6.72;;;;;;;7.69;71.07;99457.06;4933938;29;20031;-90
2022/10/20 06:03:59;;;;;;;34.95;7.25;;;;;;;7.73;70.99;99465.47;4918550;29;20067;-85
2022/10/20 06:06:27;;;;;;;41.90;8.10;;;;;;;7.75;71.24;99479.59;4935971;29;20099;-88
2022/10/20 06:08:55;;;;;;;29.42;6.97;;;;;;;7.55;70.18;99456.16;4923176;29;20036;-87
2022/10/20 06:13:52;;;;;;;20.17;6.13;;;;;;;7.69;69.98;99492.44;4934628;29;20068;-89
2022/10/20 06:16:24;;;;;;;35.30;6.90;;;;;;;7.54;69.57;99473.56;4943481;29;20031;-88
2022/10/20 06:18:50;;;;;;;34.92;7.65;;;;;;;7.65;70.49;99474.25;4918348;29;20047;-88
2022/10/20 06:21:23;;;;;;;24.00;7.20;;;;;;;7.72;69.96;99474.72;4922639;29;20041;-90
2022/10/20 06:23:50;;;;;;;34.85;9.65;;;;;;;7.64;72.35;99465.28;4919247;29;20047;-89
2022/10/20 06:28:50;;;;;;;24.00;7.85;;;;;;;7.62;69.13;99475.66;4935004;29;20052;-87
2022/10/20 06:31:19;;;;;;;42.83;7.10;;;;;;;7.87;67.09;99522.72;4934829;29;20035;-86
2022/10/20 06:33:48;;;;;;;33.83;6.70;;;;;;;7.80;66.20;99514.09;4898227;29;20140;-86
2022/10/20 06:36:16;;;;;;;27.00;6.00;;;;;;;7.84;68.21;99510.50;4915935;29;20106;-88
2022/10/20 06:38:43;;;;;;;48.58;8.20;;;;;;;7.77;66.65;99494.50;4928180;29;20142;-87
2022/10/20 06:41:14;;;;;;;33.13;6.70;;;;;;;7.86;66.59;99497.41;4934264;29;20122;-87
2022/10/20 06:43:40;;;;;;;28.60;6.43;;;;;;;8.02;66.11;99513.56;4932858;29;20055;-87
2022/10/20 06:46:10;;;;;;;26.52;7.22;;;;;;;7.86;66.59;99481.09;4934657;29;20047;-88
2022/10/20 06:48:36;;;;;;;16.58;6.82;;;;;;;7.93;67.42;99480.72;4917435;29;20067;-86
2022/10/20 06:51:09;;;;;;;19.25;7.18;;;;;;;8.27;67.53;99524.13;4935185;29;20047;-89
2022/10/20 06:53:36;;;;;;;16.20;7.18;;;;;;;8.27;67.88;99529.56;4936287;29;20045;-86
2022/10/20 06:56:05;;;;;;;18.88;6.47;;;;;;;8.13;66.59;99496.00;4943902;29;20047;-86
2022/10/20 06:58:33;;;;;;;24.30;8.75;;;;;;;8.14;65.48;99479.34;4942314;29;20135;-87
2022/10/20 07:01:05;;;;;;;21.80;6.82;;;;;;;8.31;65.36;99513.44;4934696;29;20047;-87
2022/10/20 07:03:34;;;;;;;39.65;8.32;;;;;;;8.43;64.12;99519.31;4934636;29;20035;-87
2022/10/20 07:06:01;;;;;;;31.38;7.53;;;;;;;8.39;64.95;99508.19;4933084;29;20078;-87
2022/10/20 07:11:08;;;;;;;23.77;8.15;;;;;;;8.43;63.03;99520.13;4934849;29;19923;-86
2022/10/20 07:13:36;;;;;;;11.02;5.00;;;;;;;8.21;61.16;99509.78;4933517;29;20054;-88
2022/10/20 07:16:05;;;;;;;20.88;4.65;;;;;;;7.84;60.13;99496.88;4917424;29;20075;-87
2022/10/20 07:18:32;;;;;;;11.15;5.28;;;;;;;7.94;60.85;99534.06;4918319;29;20452;-88
2022/10/20 07:21:04;;;;;;;17.15;5.45;;;;;;;7.69;60.76;99500.59;4938069;29;20048;-87
2022/10/20 07:23:31;;;;;;;23.67;5.40;;;;;;;7.71;60.59;99516.63;4939086;29;20046;-86
2022/10/20 07:26:07;;;;;;;27.88;6.20;;;;;;;7.89;61.05;99539.59;4939513;29;20071;-86
2022/10/20 07:28:34;;;;;;;17.10;5.77;;;;;;;7.75;61.68;99509.53;4919467;29;20059;-87
2022/10/20 07:31:06;;;;;;;15.70;5.57;;;;;;;7.84;60.90;99521.38;4903748;29;20055;-87
2022/10/20 07:33:33;;;;;;;26.85;5.53;;;;;;;7.98;60.94;99552.25;4938065;29;20044;-87
2022/10/20 07:36:00;;;;;;;10.63;5.32;;;;;;;8.04;61.80;99565.81;4937000;29;20035;-87
2022/10/20 07:38:27;;;;;;;12.25;5.20;;;;;;;7.77;61.27;99529.88;4920525;29;20044;-87
2022/10/20 07:41:01;;;;;;;9.68;4.57;;;;;;;7.94;60.78;99539.50;4936024;29;20076;-87
2022/10/20 07:43:27;;;;;;;16.80;4.88;;;;;;;8.04;60.24;99557.63;4933671;29;20055;-86
2022/10/20 07:45:53;;;;;;;9.02;4.40;;;;;;;7.93;59.96;99565.91;4919747;29;20044;-87
2022/10/20 07:48:20;;;;;;;15.23;4.60;;;;;;;7.98;61.55;99574.03;4942847;29;20048;-87
2022/10/20 07:50:47;;;;;;;9.77;4.03;;;;;;;7.64;59.17;99519.69;4936748;29;20090;-89
2022/10/20 07:53:13;;;;;;;14.93;5.07;;;;;;;7.61;59.98;99514.00;4920403;29;20059;-88
2022/10/20 07:55:39;;;;;;;15.23;5.82;;;;;;;7.73;59.12;99536.22;4936247;29;20039;-88
2022/10/20 07:58:05;;;;;;;16.10;6.68;;;;;;;7.89;60.60;99566.78;4934259;29;20051;-88
2022/10/20 08:00:31;;;;;;;16.95;5.68;;;;;;;7.95;59.29;99584.69;4936471;29;20054;-88
2022/10/20 08:02:59;;;;;;;29.47;6.43;;;;;;;7.58;59.74;99545.31;4935691;29;20055;-86
2022/10/20 08:10:23;;;;;;;27.15;5.80;;;;;;;7.60;59.66;99564.91;4939415;29;20048;-87
2022/10/20 08:15:18;;;;;;;29.05;5.55;;;;;;;7.62;58.69;99543.66;4941461;29;20036;-87
2022/10/20 08:17:44;;;;;;;43.15;6.57;;;;;;;7.95;58.82;99562.94;4936359;29;20042;-86
2022/10/20 08:20:10;;;;;;;52.20;7.80;;;;;;;8.12;59.25;99560.53;4915262;29;20095;-87
2022/10/20 08:25:05;;;;;;;31.63;5.60;;;;;;;8.10;58.46;99535.50;4915393;29;20084;-88
2022/10/20 08:27:32;;;;;;;14.75;4.78;;;;;;;8.30;56.65;99553.50;4899857;29;20519;-88
2022/10/20 08:29:59;;;;;;;;;;;;;;;8.57;56.46;99561.06;4915183;29;20036;-86
2022/10/20 08:32:26;;;;;;;27.88;5.47;;;;;;;8.58;57.19;99553.72;4915799;29;19966;-86
2022/10/20 08:34:52;;;;;;;31.23;5.53;;;;;;;8.66;55.06;99544.88;4915303;29;20043;-87
2022/10/20 08:37:18;;;;;;;25.30;4.63;;;;;;;8.62;54.76;99552.84;4899162;29;20055;-86
2022/10/20 08:39:46;;;;;;;;;;;;;;;8.80;53.53;99577.66;4900045;29;20054;-85
2022/10/20 08:42:12;;;;;;;12.55;3.53;;;;;;;8.72;52.74;99583.78;4914025;29;19967;-86
2022/10/20 08:44:42;;;;;;;13.90;3.25;;;;;;;8.63;51.67;99578.16;4899383;29;20577;-87
2022/10/20 08:47:26;;;;;;;15.80;3.20;;;;;;;8.67;51.95;99581.91;4898217;29;20418;-85
2022/10/20 08:49:53;;;;;;;20.15;3.47;;;;;;;8.45;51.63;99549.81;4896160;29;20045;-88
2022/10/20 08:52:23;;;;;;;13.10;3.60;;;;;;;8.76;52.52;99582.88;4909621;29;20052;-88
2022/10/20 08:54:54;;;;;;;14.48;3.40;;;;;;;8.72;51.65;99576.41;4914986;29;20044;-86
2022/10/20 08:57:32;;;;;;;25.58;4.50;;;;;;;8.67;52.32;99574.56;4910277;29;20055;-87
2022/10/20 09:00:27;;;;;;;17.83;3.80;;;;;;;8.75;50.92;99591.38;4935951;29;20051;-88
2022/10/20 09:02:54;;;;;;;26.67;5.28;;;;;;;8.39;51.58;99546.34;4919154;29;20050;-88
2022/10/20 09:05:26;;;;;;;45.17;5.30;;;;;;;8.60;52.31;99600.56;4918783;29;20041;-87
2022/10/20 09:07:53;;;;;;;22.52;4.55;;;;;;;8.25;52.30;99572.66;4927780;29;20040;-88
2022/10/20 09:10:24;;;;;;;28.55;5.10;;;;;;;8.50;53.56;99601.50;4918738;29;20407;-87
2022/10/20 09:12:51;;;;;;;7.85;3.20;;;;;;;8.10;52.98;99567.38;4935794;29;20722;-88
2022/10/20 09:17:53;;;;;;;20.00;4.03;;;;;;;8.06;52.12;99583.47;4931949;29;20038;-87
2022/10/20 09:20:43;;;;;;;12.65;3.80;;;;;;;8.18;52.86;99616.56;4931131;29;20123;-87
2022/10/20 09:23:13;;;;;;;19.90;4.50;;;;;;;8.04;53.14;99599.28;4916366;29;20151;-88
2022/10/20 09:25:42;;;;;;;13.65;3.95;;;;;;;8.16;53.60;99602.41;4911979;29;20041;-87
2022/10/20 09:28:20;;;;;;;17.80;5.03;;;;;;;8.17;53.85;99612.19;4907739;29;20421;-87
2022/10/20 09:30:46;;;;;;;14.68;5.00;;;;;;;7.94;53.81;99599.38;4929905;29;20043;-88
2022/10/20 09:33:23;;;;;;;15.18;4.03;;;;;;;8.15;53.96;99608.97;4918431;29;20545;-86
2022/10/20 09:35:51;;;;;;;22.05;4.60;;;;;;;8.17;54.27;99620.38;4905036;29;20068;-88
2022/10/20 09:38:28;;;;;;;12.98;4.32;;;;;;;8.11;54.14;99607.94;4916926;29;20421;-88
2022/10/20 09:41:16;;;;;;;7.30;3.88;;;;;;;8.10;52.69;99613.66;4905949;29;20032;-88
2022/10/20 09:44:13;;;;;;;11.50;4.28;;;;;;;8.10;52.77;99613.66;4928120;29;20521;-88
2022/10/20 09:46:49;;;;;;;14.05;4.30;;;;;;;8.05;52.89;99611.00;4937098;29;20518;-87
2022/10/20 09:49:34;;;;;;;12.43;3.73;;;;;;;7.97;52.64;99598.81;4937011;29;20039;-88
2022/10/20 09:52:02;;;;;;;7.22;3.70;;;;;;;8.09;52.00;99595.72;4955920;29;20071;-93
2022/10/20 09:54:29;;;;;;;11.73;3.90;;;;;;;8.18;51.52;99618.47;4939269;29;20047;-88
2022/10/20 09:57:14;;;;;;;14.43;4.15;;;;;;;8.16;51.78;99621.47;4924766;29;20046;-88
2022/10/20 09:59:45;;;;;;;8.88;3.80;;;;;;;8.15;51.98;99619.06;4920417;29;20055;-88
2022/10/20 10:02:17;;;;;;;6.00;3.22;;;;;;;8.19;51.63;99637.25;4920505;29;20417;-88
2022/10/20 10:04:47;;;;;;;7.75;3.22;;;;;;;7.92;51.51;99596.16;4936066;29;20521;-93
2022/10/20 10:07:31;;;;;;;5.60;3.20;;;;;;;8.29;52.60;99630.06;4907139;29;20069;-89
2022/10/20 10:09:59;;;;;;;6.82;3.30;;;;;;;8.20;52.22;99611.63;4910883;29;20186;-93
2022/10/20 10:12:29;;;;;;;16.20;3.47;;;;;;;8.26;51.19;99597.97;4956278;29;20039;-87
2022/10/20 10:15:08;;;;;;;15.73;2.83;;;;;;;8.19;51.59;99585.50;4940653;29;20421;-88
2022/10/20 10:17:40;;;;;;;10.60;3.05;;;;;;;8.30;51.43;99616.16;4958421;29;20485;-89
2022/10/20 10:20:09;;;;;;;8.95;2.92;;;;;;;8.35;51.70;99628.91;4956817;29;20425;-87
2022/10/20 10:22:36;;;;;;;6.03;3.17;;;;;;;8.12;52.01;99598.66;4935474;29;20134;-88
2022/10/20 10:25:04;;;;;;;7.78;3.15;;;;;;;8.32;52.52;99629.50;4919918;29;20126;-89
2022/10/20 10:27:34;;;;;;;5.30;3.08;;;;;;;8.12;53.13;99609.56;4923651;29;20039;-86
2022/10/20 10:30:27;;;;;;;8.13;2.83;;;;;;;8.23;52.77;99629.31;4948220;29;20417;-91
2022/10/20 10:32:54;;;;;;;6.28;3.90;;;;;;;8.22;53.25;99627.69;4963598;28;20040;-87
2022/10/20 10:35:35;;;;;;;8.40;3.10;;;;;;;8.06;53.56;99621.59;4919328;29;20051;-90
2022/10/20 10:38:01;;;;;;;6.75;2.90;;;;;;;8.05;53.54;99603.66;4928250;29;20524;-88
2022/10/20 10:40:35;;;;;;;11.35;3.20;;;;;;;8.11;53.88;99604.38;4933932;29;20071;-88
2022/10/20 10:43:31;;;;;;;8.93;3.33;;;;;;;8.22;53.45;99625.78;4952749;29;20497;-89
2022/10/20 10:46:13;;;;;;;10.93;3.20;;;;;;;8.06;53.81;99607.19;4950809;29;20055;-88
2022/10/20 10:48:55;;;;;;;11.50;3.40;;;;;;;8.08;53.47;99602.22;4922202;29;20106;-87
2022/10/20 10:51:50;;;;;;;12.93;3.42;;;;;;;8.12;53.84;99603.28;4959103;29;20043;-88
2022/10/20 10:54:43;;;;;;;10.82;3.22;;;;;;;8.17;53.82;99611.41;4968072;28;20043;-88
2022/10/20 10:57:35;;;;;;;7.63;3.45;;;;;;;8.28;53.88;99628.41;4934173;29;20424;-87
2022/10/20 11:00:10;;;;;;;9.82;3.35;;;;;;;7.74;54.33;99592.25;4952258;29;20105;-88
2022/10/20 11:02:49;;;;;;;8.45;3.20;;;;;;;7.86;54.82;99627.25;4956016;29;20035;-87
2022/10/20 11:05:18;;;;;;;;;;;;;;;8.01;54.67;99629.81;4938795;29;20055;-90
2022/10/20 11:08:04;;;;;;;23.55;3.83;;;;;;;8.13;55.03;99618.53;4956376;29;19929;-89
2022/10/20 11:11:24;;;;;;;8.27;3.45;;;;;;;8.30;53.81;99631.69;4956365;29;20049;-89
2022/10/20 11:14:32;;;;;;;5.07;2.53;;;;;;;7.95;51.91;99599.13;4888109;29;20033;-87
2022/10/20 11:17:43;;;;;;;8.82;2.70;;;;;;;7.81;52.10;99602.78;4880872;29;20032;-85
2022/10/20 11:20:21;;;;;;;33.90;3.35;;;;;;;8.05;53.67;99641.75;4876912;29;20065;-87
2022/10/20 11:23:16;;;;;;;7.95;3.20;;;;;;;8.06;53.62;99648.00;4895671;29;20041;-87
2022/10/20 11:26:01;;;;;;;;;;;;;;;7.93;52.92;99638.59;4864099;29;20495;-88
2022/10/20 11:28:46;;;;;;;7.00;2.90;;;;;;;8.03;53.45;99643.13;4893856;29;20028;-89
2022/10/20 11:31:39;;;;;;;9.15;3.17;;;;;;;8.08;54.60;99621.28;4898553;29;20049;-87
2022/10/20 11:34:15;;;;;;;13.55;4.90;;;;;;;8.03;52.94;99613.19;4872083;29;20053;-86
2022/10/20 11:36:45;;;;;;;30.05;3.90;;;;;;;8.28;54.47;99644.75;4895391;29;20056;-91
2022/10/20 11:39:28;;;;;;;14.32;2.75;;;;;;;8.31;52.56;99646.91;4879680;29;20091;-87
2022/10/20 11:42:02;;;;;;;35.58;3.83;;;;;;;8.31;53.50;99634.13;4878457;29;20135;-85
2022/10/20 11:44:37;;;;;;;13.63;2.38;;;;;;;8.35;50.94;99640.63;4849313;29;20044;-86
2022/10/20 11:47:12;;;;;;;14.18;3.15;;;;;;;8.27;51.44;99619.44;4869410;29;20123;-88
2022/10/20 11:49:39;;;;;;;47.90;5.10;;;;;;;8.35;51.19;99647.97;4931793;29;20064;-88
2022/10/20 11:52:18;;;;;;;15.45;3.17;;;;;;;8.39;51.33;99646.31;4913039;29;20135;-87
2022/10/20 11:55:05;;;;;;;7.72;2.15;;;;;;;8.40;50.73;99642.50;4933657;29;20036;-90
2022/10/20 11:57:52;;;;;;;7.60;2.50;;;;;;;8.30;51.15;99651.56;4916420;29;20414;-87
2022/10/20 12:00:31;;;;;;;21.83;3.17;;;;;;;8.31;51.42;99649.63;4911032;29;20127;-86
2022/10/20 12:03:29;;;;;;;22.75;2.92;;;;;;;8.24;51.57;99644.53;4907388;29;20051;-87
2022/10/20 12:06:29;;;;;;;8.05;2.47;;;;;;;8.34;52.30;99644.41;4867740;29;20515;-91
2022/10/20 12:09:33;;;;;;;8.02;2.97;;;;;;;8.34;51.56;99649.88;4900145;29;20105;-92
2022/10/20 12:12:10;;;;;;;6.80;3.15;;;;;;;8.26;53.04;99657.88;4897304;29;20047;-85
2022/10/20 12:14:40;;;;;;;15.48;2.90;;;;;;;8.29;52.48;99662.75;4914516;29;20036;-85
2022/10/20 12:17:25;;;;;;;12.48;3.08;;;;;;;8.35;52.58;99654.22;4931123;29;20043;-88
2022/10/20 12:19:51;;;;;;;14.82;3.35;;;;;;;8.31;52.55;99633.28;4916201;29;20043;-90
2022/10/20 12:22:18;;;;;;;14.97;3.87;;;;;;;8.46;52.38;99663.13;4915828;29;20039;-88